createdAt,value
2022-10-11T00:03:01.364Z,102068.31
2022-10-11T00:08:16.336Z,102063.97
2022-10-11T00:13:31.372Z,102069.56
2022-10-11T00:18:46.343Z,102078.44
2022-10-11T00:24:01.383Z,102077.19
2022-10-11T00:29:16.426Z,102082.53
2022-10-11T00:34:31.371Z,102078.22
2022-10-11T00:39:46.417Z,102083.53
2022-10-11T00:45:01.375Z,102080.72
2022-10-11T00:50:16.639Z,102088.34
2022-10-11T00:55:32.637Z,102101.28
2022-10-11T01:00:48.681Z,102100.00
2022-10-11T01:06:04.713Z,102107.63
2022-10-11T01:11:20.397Z,102114.47
2022-10-11T01:16:35.646Z,102113.47
2022-10-11T01:21:51.353Z,102124.34
2022-10-11T01:27:06.344Z,102112.44
2022-10-11T01:32:21.362Z,102117.75
2022-10-11T01:37:36.352Z,102117.50
2022-10-11T01:42:51.339Z,102126.38
2022-10-11T01:48:06.121Z,102128.41
2022-10-11T01:53:21.341Z,102124.84
2022-10-11T01:58:36.354Z,102133.72
2022-10-11T02:03:51.725Z,102128.66
2022-10-11T02:09:08.347Z,102130.41
2022-10-11T02:14:23.338Z,102129.91
2022-10-11T02:19:38.356Z,102134.47
2022-10-11T02:24:53.378Z,102128.66
2022-10-11T02:30:08.400Z,102131.19
2022-10-11T02:35:23.364Z,102133.72
2022-10-11T02:40:38.654Z,102140.53
2022-10-11T02:45:54.722Z,102141.84
2022-10-11T02:51:10.339Z,102134.47
2022-10-11T02:56:25.666Z,102139.28
2022-10-11T03:01:41.754Z,102144.88
2022-10-11T03:06:57.339Z,102142.84
2022-10-11T03:12:12.114Z,102152.75
2022-10-11T03:17:42.569Z,102151.22
2022-10-11T03:22:57.362Z,102146.13
2022-10-11T03:28:12.481Z,102158.31
2022-10-11T03:33:28.673Z,102158.59
2022-10-11T03:38:44.639Z,102164.44
2022-10-11T03:44:00.709Z,102166.97
2022-10-11T03:49:16.705Z,102175.06
2022-10-11T03:54:32.364Z,102171.25
2022-10-11T03:59:47.354Z,102179.59
2022-10-11T04:05:02.363Z,102181.56
2022-10-11T04:10:17.378Z,102188.41
2022-10-11T04:15:32.401Z,102193.97
2022-10-11T04:20:47.589Z,102197.47
2022-10-11T04:26:03.793Z,102200.47
2022-10-11T04:31:19.669Z,102209.09
2022-10-11T04:36:35.361Z,102210.56
2022-10-11T04:41:50.386Z,102218.41
2022-10-11T04:47:05.365Z,102213.03
2022-10-11T04:52:24.781Z,102220.88
2022-10-11T04:57:40.639Z,102216.28
2022-10-11T05:02:56.357Z,102218.53
2022-10-11T05:08:11.384Z,102208.34
2022-10-11T05:13:26.403Z,102225.31
2022-10-11T05:18:41.619Z,102223.50
2022-10-11T05:23:57.365Z,102231.59
2022-10-11T05:29:12.367Z,102233.38
2022-10-11T05:34:27.475Z,102239.16
2022-10-11T05:39:42.409Z,102235.34
2022-10-11T05:44:57.370Z,102239.84
2022-10-11T05:50:12.670Z,102247.97
2022-10-11T05:55:28.364Z,102246.94
2022-10-11T06:00:43.400Z,102248.66
2022-10-11T06:05:58.375Z,102257.53
2022-10-11T06:11:13.704Z,102264.06
2022-10-11T06:16:29.355Z,102265.78
2022-10-11T06:21:44.381Z,102263.50
2022-10-11T06:26:59.363Z,102268.06
2022-10-11T06:32:14.713Z,102279.19
2022-10-11T06:37:30.466Z,102280.94
2022-10-11T06:42:45.616Z,102280.66
2022-10-11T06:48:01.444Z,102291.03
2022-10-11T06:53:16.376Z,102294.31
2022-10-11T06:58:31.372Z,102303.94
2022-10-11T07:03:46.691Z,102317.09
2022-10-11T07:09:02.434Z,102320.38
2022-10-11T07:14:17.375Z,102321.63
2022-10-11T07:19:32.117Z,102326.91
2022-10-11T07:24:47.347Z,102316.28
2022-10-11T07:30:02.433Z,102320.31
2022-10-11T07:35:17.710Z,102325.88
2022-10-11T07:40:33.691Z,102329.88
2022-10-11T07:45:49.386Z,102331.94
2022-10-11T07:51:04.369Z,102341.53
2022-10-11T07:56:19.804Z,102344.81
2022-10-11T08:01:35.471Z,102342.00
2022-10-11T08:06:53.422Z,102349.59
2022-10-11T08:12:08.463Z,102351.63
2022-10-11T08:17:23.381Z,102363.28
2022-10-11T08:22:38.393Z,102370.38
2022-10-11T08:27:53.148Z,102363.28
2022-10-11T08:33:08.796Z,102362.19
2022-10-11T08:38:24.703Z,102374.09
2022-10-11T08:43:40.376Z,102377.41
2022-10-11T08:48:55.367Z,102386.53
2022-10-11T08:54:10.383Z,102389.78
2022-10-11T09:00:02.373Z,102390.56
2022-10-11T09:05:17.364Z,102393.56
2022-10-11T09:10:32.362Z,102385.97
2022-10-11T09:15:47.401Z,102390.25
2022-10-11T09:21:02.393Z,102387.47
2022-10-11T09:26:17.449Z,102390.00
2022-10-11T09:31:32.159Z,102392.00
2022-10-11T09:36:47.421Z,102399.13
2022-10-11T09:42:02.404Z,102399.13
2022-10-11T09:47:17.419Z,102401.16
2022-10-11T09:52:32.724Z,102405.47
2022-10-11T09:57:48.454Z,102406.97
2022-10-11T10:03:03.667Z,102406.97
2022-10-11T10:08:19.446Z,102400.63
2022-10-11T10:13:34.384Z,102400.94
2022-10-11T10:18:49.431Z,102404.47
2022-10-11T10:24:04.339Z,102402.47
2022-10-11T10:29:19.440Z,102393.34
2022-10-11T10:34:34.754Z,102398.16
2022-10-11T10:39:50.393Z,102403.22
2022-10-11T10:45:08.494Z,102395.63
2022-10-11T10:50:27.483Z,102394.88
2022-10-11T10:55:42.363Z,102394.09
2022-10-11T11:00:57.394Z,102393.34
2022-10-11T11:06:12.193Z,102387.75
2022-10-11T11:11:27.709Z,102389.59
2022-10-11T11:16:43.446Z,102382.25
2022-10-11T11:21:58.444Z,102380.81
2022-10-11T11:27:13.450Z,102368.69
2022-10-11T11:32:28.702Z,102357.84
2022-10-11T11:37:44.749Z,102360.13
2022-10-11T11:43:01.422Z,102350.53
2022-10-11T11:48:16.444Z,102349.75
2022-10-11T11:53:31.447Z,102356.59
2022-10-11T11:58:46.404Z,102347.47
2022-10-11T12:04:01.430Z,102344.81
2022-10-11T12:09:16.456Z,102345.03
2022-10-11T12:14:31.427Z,102349.53
2022-10-11T12:19:46.403Z,102337.34
2022-10-11T12:25:01.449Z,102336.28
2022-10-11T12:30:16.407Z,102331.13
2022-10-11T12:35:31.751Z,102328.81
2022-10-11T12:40:47.418Z,102316.44
2022-10-11T12:46:02.477Z,102302.50
2022-10-11T12:51:17.388Z,102308.41
2022-10-11T12:56:32.411Z,102313.25
2022-10-11T13:01:47.333Z,102310.78
2022-10-11T13:07:06.610Z,102303.91
2022-10-11T13:12:22.376Z,102311.03
2022-10-11T13:17:38.652Z,102307.00
2022-10-11T13:22:54.794Z,102304.69
2022-10-11T13:28:10.439Z,102298.63
2022-10-11T13:33:26.411Z,102294.59
2022-10-11T13:38:41.153Z,102293.31
2022-10-11T13:41:25.509Z,102441.19
2022-10-11T13:43:54.754Z,102433.84
2022-10-11T13:43:56.416Z,102284.19
2022-10-11T13:46:24.010Z,102441.97
2022-10-11T13:48:53.345Z,102437.78
2022-10-11T13:49:11.493Z,102284.72
2022-10-11T13:54:26.728Z,102287.75
2022-10-11T13:59:42.404Z,102282.19
2022-10-11T14:04:57.440Z,102286.53
2022-10-11T14:10:12.452Z,102278.94
2022-10-11T14:15:27.399Z,102267.81
2022-10-11T14:20:42.433Z,102267.31
2022-10-11T14:25:57.465Z,102266.03
2022-10-11T14:31:12.456Z,102269.09
2022-10-11T14:36:27.688Z,102276.69
2022-10-11T14:41:43.717Z,102268.34
2022-10-11T14:46:59.465Z,102263.53
2022-10-11T14:52:14.505Z,102261.50
2022-10-11T14:57:29.915Z,102263.81
2022-10-11T15:02:45.442Z,102257.00
2022-10-11T15:08:00.886Z,102259.78
2022-10-11T15:13:16.510Z,102262.56
2022-10-11T15:18:31.415Z,102257.25
2022-10-11T15:23:46.738Z,102256.50
2022-10-11T15:29:02.418Z,102254.47
2022-10-11T15:34:17.409Z,102246.88
2022-10-11T15:39:32.174Z,102252.44
2022-10-11T15:44:47.476Z,102246.88
2022-10-11T15:50:02.442Z,102241.31
2022-10-11T15:55:17.491Z,102225.34
2022-10-11T16:00:32.403Z,102223.34
2022-10-11T16:05:47.410Z,102229.69
2022-10-11T16:11:02.409Z,102224.09
2022-10-11T16:16:17.470Z,102225.34
2022-10-11T16:21:32.718Z,102224.09
2022-10-11T16:26:48.410Z,102222.84
2022-10-11T16:32:03.408Z,102233.22
2022-10-11T16:37:18.740Z,102237.56
2022-10-11T16:42:34.427Z,102241.09
2022-10-11T16:47:49.409Z,102233.22
2022-10-11T16:53:04.449Z,102243.59
2022-10-11T16:58:19.451Z,102230.94
2022-10-11T17:03:34.411Z,102240.53
2022-10-11T17:08:49.501Z,102242.59
2022-10-11T17:14:04.427Z,102245.38
2022-10-11T17:19:19.420Z,102235.47
2022-10-11T17:24:34.424Z,102243.84
2022-10-11T17:29:49.955Z,102237.50
2022-10-11T17:35:05.453Z,102243.06
2022-10-11T17:40:20.403Z,102259.00
2022-10-11T17:45:35.727Z,102249.59
2022-10-11T17:50:51.418Z,102252.41
2022-10-11T17:56:06.442Z,102255.19
2022-10-11T18:01:21.499Z,102244.81
2022-10-11T18:06:36.739Z,102244.81
2022-10-11T18:11:52.405Z,102247.59
2022-10-11T18:17:07.407Z,102244.03
2022-10-11T18:22:22.469Z,102258.44
2022-10-11T18:27:37.446Z,102246.53
2022-10-11T18:32:52.564Z,102242.97
2022-10-11T18:38:07.779Z,102247.81
2022-10-11T18:43:23.451Z,102240.19
2022-10-11T18:48:38.466Z,102243.50
2022-10-11T18:53:53.219Z,102238.69
2022-10-11T18:59:08.865Z,102245.78
2022-10-11T19:04:24.445Z,102240.38
2022-10-11T19:09:39.274Z,102234.72
2022-10-11T19:14:54.457Z,102230.03
2022-10-11T19:20:09.514Z,102235.91
2022-10-11T19:25:24.439Z,102233.44
2022-10-11T19:30:39.433Z,102234.00
2022-10-11T19:35:54.426Z,102232.03
2022-10-11T19:41:09.404Z,102217.84
2022-10-11T19:46:44.241Z,102223.47
2022-10-11T19:51:59.447Z,102220.00
2022-10-11T19:57:14.499Z,102223.28
2022-10-11T20:02:29.754Z,102217.47
2022-10-11T20:07:45.187Z,102210.16
2022-10-11T20:13:00.463Z,102213.97
2022-10-11T20:18:15.217Z,102215.00
2022-10-11T20:23:30.939Z,102218.81
2022-10-11T20:28:46.507Z,102221.91
2022-10-11T20:34:01.421Z,102218.63
2022-10-11T20:39:16.454Z,102218.09
2022-10-11T20:44:31.454Z,102221.91
2022-10-11T20:49:46.507Z,102216.63
2022-10-11T20:55:01.485Z,102220.94
2022-10-11T21:00:16.592Z,102214.34
2022-10-11T21:05:31.458Z,102220.16
2022-10-11T21:10:46.444Z,102230.88
2022-10-11T21:16:01.432Z,102230.09
2022-10-11T21:21:16.739Z,102224.03
2022-10-11T21:26:32.486Z,102228.34
2022-10-11T21:31:47.762Z,102219.97
2022-10-11T21:37:03.469Z,102227.84
2022-10-11T21:42:18.467Z,102220.22
2022-10-11T21:47:38.039Z,102224.53
2022-10-11T21:52:54.472Z,102224.53
2022-10-11T21:58:09.428Z,102221.00
2022-10-11T22:03:24.456Z,102227.34
2022-10-11T22:08:39.435Z,102229.38
2022-10-11T22:13:54.209Z,102236.19
2022-10-11T22:19:09.730Z,102222.25
2022-10-11T22:24:25.733Z,102219.72
2022-10-11T22:29:41.493Z,102223.78
2022-10-11T22:34:56.440Z,102218.97
2022-10-11T22:40:11.822Z,102211.09
2022-10-11T22:45:27.416Z,102218.69
2022-10-11T22:50:42.412Z,102219.22
2022-10-11T22:55:57.437Z,102219.22
2022-10-11T23:01:12.743Z,102209.31
2022-10-11T23:06:28.527Z,102209.31
2022-10-11T23:11:43.404Z,102214.13
2022-10-11T23:16:58.660Z,102213.84
2022-10-11T23:22:14.491Z,102215.59
2022-10-11T23:27:29.769Z,102214.09
2022-10-11T23:32:45.441Z,102216.88
2022-10-11T23:38:00.691Z,102204.97
2022-10-11T23:43:16.429Z,102194.56
2022-10-11T23:48:31.744Z,102186.94
2022-10-11T23:53:47.861Z,102189.72
2022-10-11T23:59:03.464Z,102187.69
